sensor_id;sensor_type;location;lat;lon;timestamp;P1;durP1;ratioP1;P2;durP2;ratioP2
70433;SDS011;57876;47.792;12.960;2022-08-21T00:00:34;5.50;;;1.50;;
70433;SDS011;57876;47.792;12.960;2022-08-21T00:03:03;5.43;;;1.30;;
70433;SDS011;57876;47.792;12.960;2022-08-21T00:05:30;4.87;;;1.27;;
70433;SDS011;57876;47.792;12.960;2022-08-21T00:07:56;4.60;;;1.55;;
70433;SDS011;57876;47.792;12.960;2022-08-21T00:10:20;4.30;;;1.20;;
70433;SDS011;57876;47.792;12.960;2022-08-21T00:12:45;4.00;;;1.10;;
70433;SDS011;57876;47.792;12.960;2022-08-21T00:15:11;5.95;;;1.38;;
70433;SDS011;57876;47.792;12.960;2022-08-21T00:17:37;4.80;;;1.13;;
70433;SDS011;57876;47.792;12.960;2022-08-21T00:20:05;4.23;;;1.17;;
70433;SDS011;57876;47.792;12.960;2022-08-21T00:22:32;4.97;;;1.30;;
70433;SDS011;57876;47.792;12.960;2022-08-21T00:24:57;4.17;;;1.10;;
70433;SDS011;57876;47.792;12.960;2022-08-21T00:27:21;4.32;;;1.20;;
70433;SDS011;57876;47.792;12.960;2022-08-21T00:29:46;4.33;;;1.00;;
70433;SDS011;57876;47.792;12.960;2022-08-21T00:32:10;4.17;;;1.10;;
70433;SDS011;57876;47.792;12.960;2022-08-21T00:34:35;4.40;;;1.23;;
70433;SDS011;57876;47.792;12.960;2022-08-21T00:36:59;4.90;;;1.10;;
70433;SDS011;57876;47.792;12.960;2022-08-21T00:39:23;3.97;;;1.10;;
70433;SDS011;57876;47.792;12.960;2022-08-21T00:41:48;4.60;;;1.10;;
70433;SDS011;57876;47.792;12.960;2022-08-21T00:44:13;5.20;;;1.10;;
70433;SDS011;57876;47.792;12.960;2022-08-21T00:46:39;4.45;;;1.20;;
70433;SDS011;57876;47.792;12.960;2022-08-21T00:49:05;5.05;;;1.30;;
70433;SDS011;57876;47.792;12.960;2022-08-21T00:51:34;5.85;;;1.10;;
70433;SDS011;57876;47.792;12.960;2022-08-21T00:54:01;4.60;;;1.30;;
70433;SDS011;57876;47.792;12.960;2022-08-21T00:56:27;4.63;;;1.37;;
70433;SDS011;57876;47.792;12.960;2022-08-21T00:58:52;4.53;;;1.35;;
70433;SDS011;57876;47.792;12.960;2022-08-21T01:01:19;4.20;;;1.20;;
70433;SDS011;57876;47.792;12.960;2022-08-21T01:03:44;5.43;;;1.20;;
70433;SDS011;57876;47.792;12.960;2022-08-21T01:06:10;4.32;;;1.30;;
70433;SDS011;57876;47.792;12.960;2022-08-21T01:08:35;4.35;;;1.27;;
70433;SDS011;57876;47.792;12.960;2022-08-21T01:10:59;4.20;;;1.17;;
70433;SDS011;57876;47.792;12.960;2022-08-21T01:13:26;4.18;;;1.02;;
70433;SDS011;57876;47.792;12.960;2022-08-21T01:15:55;4.47;;;1.30;;
70433;SDS011;57876;47.792;12.960;2022-08-21T01:18:21;4.38;;;1.10;;
70433;SDS011;57876;47.792;12.960;2022-08-21T01:23:35;4.03;;;1.10;;
70433;SDS011;57876;47.792;12.960;2022-08-21T01:26:02;3.78;;;0.93;;
70433;SDS011;57876;47.792;12.960;2022-08-21T01:28:27;4.45;;;1.10;;
70433;SDS011;57876;47.792;12.960;2022-08-21T01:30:55;4.45;;;1.17;;
70433;SDS011;57876;47.792;12.960;2022-08-21T01:33:20;4.43;;;1.20;;
70433;SDS011;57876;47.792;12.960;2022-08-21T01:35:46;4.63;;;1.15;;
70433;SDS011;57876;47.792;12.960;2022-08-21T01:38:10;4.30;;;1.03;;
70433;SDS011;57876;47.792;12.960;2022-08-21T01:40:36;4.72;;;1.00;;
70433;SDS011;57876;47.792;12.960;2022-08-21T01:43:00;4.30;;;1.10;;
70433;SDS011;57876;47.792;12.960;2022-08-21T01:45:26;4.07;;;0.90;;
70433;SDS011;57876;47.792;12.960;2022-08-21T01:47:50;3.80;;;1.00;;
70433;SDS011;57876;47.792;12.960;2022-08-21T01:50:17;4.07;;;1.00;;
70433;SDS011;57876;47.792;12.960;2022-08-21T01:52:42;3.80;;;0.80;;
70433;SDS011;57876;47.792;12.960;2022-08-21T01:55:07;4.33;;;1.10;;
70433;SDS011;57876;47.792;12.960;2022-08-21T01:57:33;4.95;;;1.02;;
70433;SDS011;57876;47.792;12.960;2022-08-21T01:59:58;3.93;;;1.03;;
70433;SDS011;57876;47.792;12.960;2022-08-21T02:02:22;4.05;;;0.98;;
70433;SDS011;57876;47.792;12.960;2022-08-21T02:04:47;4.23;;;1.00;;
70433;SDS011;57876;47.792;12.960;2022-08-21T02:07:11;4.00;;;1.00;;
70433;SDS011;57876;47.792;12.960;2022-08-21T02:09:36;4.07;;;0.93;;
70433;SDS011;57876;47.792;12.960;2022-08-21T02:12:00;3.03;;;0.60;;
70433;SDS011;57876;47.792;12.960;2022-08-21T02:14:24;3.80;;;1.00;;
70433;SDS011;57876;47.792;12.960;2022-08-21T02:16:49;3.90;;;0.83;;
70433;SDS011;57876;47.792;12.960;2022-08-21T02:19:14;3.80;;;0.88;;
70433;SDS011;57876;47.792;12.960;2022-08-21T02:21:39;3.70;;;0.87;;
70433;SDS011;57876;47.792;12.960;2022-08-21T02:24:04;4.00;;;0.98;;
70433;SDS011;57876;47.792;12.960;2022-08-21T02:26:29;4.63;;;1.23;;
70433;SDS011;57876;47.792;12.960;2022-08-21T02:28:54;4.07;;;1.00;;
70433;SDS011;57876;47.792;12.960;2022-08-21T02:31:18;3.90;;;1.00;;
70433;SDS011;57876;47.792;12.960;2022-08-21T02:33:43;4.13;;;0.88;;
70433;SDS011;57876;47.792;12.960;2022-08-21T02:36:08;3.67;;;0.90;;
70433;SDS011;57876;47.792;12.960;2022-08-21T02:38:35;4.10;;;0.82;;
70433;SDS011;57876;47.792;12.960;2022-08-21T02:41:03;5.00;;;1.05;;
70433;SDS011;57876;47.792;12.960;2022-08-21T02:43:29;4.20;;;0.97;;
70433;SDS011;57876;47.792;12.960;2022-08-21T02:45:54;3.85;;;0.90;;
70433;SDS011;57876;47.792;12.960;2022-08-21T02:48:21;3.90;;;0.93;;
70433;SDS011;57876;47.792;12.960;2022-08-21T02:50:52;3.97;;;1.00;;
70433;SDS011;57876;47.792;12.960;2022-08-21T02:53:18;4.20;;;1.00;;
70433;SDS011;57876;47.792;12.960;2022-08-21T02:55:44;4.40;;;1.10;;
70433;SDS011;57876;47.792;12.960;2022-08-21T02:58:11;4.75;;;1.10;;
70433;SDS011;57876;47.792;12.960;2022-08-21T03:00:36;3.90;;;0.90;;
70433;SDS011;57876;47.792;12.960;2022-08-21T03:03:01;4.00;;;1.00;;
70433;SDS011;57876;47.792;12.960;2022-08-21T03:05:27;5.53;;;1.10;;
70433;SDS011;57876;47.792;12.960;2022-08-21T03:07:55;5.13;;;1.23;;
70433;SDS011;57876;47.792;12.960;2022-08-21T03:10:20;4.40;;;1.20;;
70433;SDS011;57876;47.792;12.960;2022-08-21T03:12:46;4.63;;;1.13;;
70433;SDS011;57876;47.792;12.960;2022-08-21T03:15:12;4.20;;;1.13;;
70433;SDS011;57876;47.792;12.960;2022-08-21T03:17:37;4.33;;;1.20;;
70433;SDS011;57876;47.792;12.960;2022-08-21T03:20:03;4.30;;;1.30;;
70433;SDS011;57876;47.792;12.960;2022-08-21T03:22:29;4.00;;;1.10;;
70433;SDS011;57876;47.792;12.960;2022-08-21T03:24:54;4.00;;;1.00;;
70433;SDS011;57876;47.792;12.960;2022-08-21T03:27:18;4.67;;;1.10;;
70433;SDS011;57876;47.792;12.960;2022-08-21T03:29:43;4.30;;;0.93;;
70433;SDS011;57876;47.792;12.960;2022-08-21T03:32:07;4.18;;;1.10;;
70433;SDS011;57876;47.792;12.960;2022-08-21T03:34:35;4.73;;;1.40;;
70433;SDS011;57876;47.792;12.960;2022-08-21T03:37:00;5.03;;;1.65;;
70433;SDS011;57876;47.792;12.960;2022-08-21T03:39:25;4.20;;;1.13;;
70433;SDS011;57876;47.792;12.960;2022-08-21T03:41:49;4.03;;;1.20;;
70433;SDS011;57876;47.792;12.960;2022-08-21T03:44:14;5.53;;;1.10;;
70433;SDS011;57876;47.792;12.960;2022-08-21T03:46:38;4.70;;;1.50;;
70433;SDS011;57876;47.792;12.960;2022-08-21T03:49:04;4.50;;;1.17;;
70433;SDS011;57876;47.792;12.960;2022-08-21T03:51:28;4.70;;;1.40;;
70433;SDS011;57876;47.792;12.960;2022-08-21T03:53:53;4.65;;;1.30;;
70433;SDS011;57876;47.792;12.960;2022-08-21T03:56:18;4.88;;;1.27;;
70433;SDS011;57876;47.792;12.960;2022-08-21T03:58:42;4.50;;;1.40;;
70433;SDS011;57876;47.792;12.960;2022-08-21T04:01:08;4.55;;;1.30;;
70433;SDS011;57876;47.792;12.960;2022-08-21T04:03:34;4.20;;;1.10;;
70433;SDS011;57876;47.792;12.960;2022-08-21T04:06:00;4.65;;;1.33;;
70433;SDS011;57876;47.792;12.960;2022-08-21T04:08:25;4.30;;;1.20;;
70433;SDS011;57876;47.792;12.960;2022-08-21T04:10:50;4.77;;;1.30;;
70433;SDS011;57876;47.792;12.960;2022-08-21T04:13:16;4.70;;;1.23;;
70433;SDS011;57876;47.792;12.960;2022-08-21T04:15:41;5.23;;;1.17;;
70433;SDS011;57876;47.792;12.960;2022-08-21T04:18:05;4.75;;;1.10;;
70433;SDS011;57876;47.792;12.960;2022-08-21T04:20:30;4.40;;;1.20;;
70433;SDS011;57876;47.792;12.960;2022-08-21T04:22:54;4.53;;;1.30;;
70433;SDS011;57876;47.792;12.960;2022-08-21T04:25:20;4.50;;;1.25;;
70433;SDS011;57876;47.792;12.960;2022-08-21T04:27:46;4.70;;;1.20;;
70433;SDS011;57876;47.792;12.960;2022-08-21T04:30:11;4.20;;;1.13;;
70433;SDS011;57876;47.792;12.960;2022-08-21T04:32:37;4.28;;;1.17;;
70433;SDS011;57876;47.792;12.960;2022-08-21T04:35:03;4.00;;;1.00;;
70433;SDS011;57876;47.792;12.960;2022-08-21T04:37:29;5.15;;;1.13;;
70433;SDS011;57876;47.792;12.960;2022-08-21T04:39:54;4.60;;;1.10;;
70433;SDS011;57876;47.792;12.960;2022-08-21T04:42:21;4.20;;;1.20;;
70433;SDS011;57876;47.792;12.960;2022-08-21T04:44:47;4.60;;;1.20;;
70433;SDS011;57876;47.792;12.960;2022-08-21T04:47:12;4.28;;;1.20;;
70433;SDS011;57876;47.792;12.960;2022-08-21T04:49:37;4.27;;;1.00;;
70433;SDS011;57876;47.792;12.960;2022-08-21T04:52:01;4.10;;;1.00;;
70433;SDS011;57876;47.792;12.960;2022-08-21T04:54:26;4.50;;;1.10;;
70433;SDS011;57876;47.792;12.960;2022-08-21T04:56:52;4.20;;;1.30;;
70433;SDS011;57876;47.792;12.960;2022-08-21T04:59:22;4.57;;;1.13;;
70433;SDS011;57876;47.792;12.960;2022-08-21T05:01:51;5.32;;;1.40;;
70433;SDS011;57876;47.792;12.960;2022-08-21T05:04:18;4.85;;;1.50;;
70433;SDS011;57876;47.792;12.960;2022-08-21T05:06:48;4.43;;;1.00;;
70433;SDS011;57876;47.792;12.960;2022-08-21T05:09:14;4.20;;;1.20;;
70433;SDS011;57876;47.792;12.960;2022-08-21T05:11:40;5.35;;;1.30;;
70433;SDS011;57876;47.792;12.960;2022-08-21T05:14:05;4.60;;;1.40;;
70433;SDS011;57876;47.792;12.960;2022-08-21T05:16:30;4.30;;;1.10;;
70433;SDS011;57876;47.792;12.960;2022-08-21T05:18:54;4.00;;;1.00;;
70433;SDS011;57876;47.792;12.960;2022-08-21T05:21:19;4.68;;;1.30;;
70433;SDS011;57876;47.792;12.960;2022-08-21T05:23:43;4.77;;;1.40;;
70433;SDS011;57876;47.792;12.960;2022-08-21T05:26:07;4.40;;;1.20;;
70433;SDS011;57876;47.792;12.960;2022-08-21T05:28:32;4.60;;;1.20;;
70433;SDS011;57876;47.792;12.960;2022-08-21T05:30:56;4.60;;;1.23;;
70433;SDS011;57876;47.792;12.960;2022-08-21T05:33:21;4.25;;;1.10;;
70433;SDS011;57876;47.792;12.960;2022-08-21T05:35:48;5.87;;;1.30;;
70433;SDS011;57876;47.792;12.960;2022-08-21T05:38:15;4.40;;;1.30;;
70433;SDS011;57876;47.792;12.960;2022-08-21T05:40:39;4.70;;;1.20;;
70433;SDS011;57876;47.792;12.960;2022-08-21T05:43:04;4.30;;;1.20;;
70433;SDS011;57876;47.792;12.960;2022-08-21T05:45:32;4.30;;;1.20;;
70433;SDS011;57876;47.792;12.960;2022-08-21T05:47:57;5.20;;;1.30;;
70433;SDS011;57876;47.792;12.960;2022-08-21T05:50:22;4.80;;;1.30;;
70433;SDS011;57876;47.792;12.960;2022-08-21T05:52:46;4.53;;;1.20;;
70433;SDS011;57876;47.792;12.960;2022-08-21T05:55:11;4.30;;;1.20;;
70433;SDS011;57876;47.792;12.960;2022-08-21T05:57:35;4.67;;;1.30;;
70433;SDS011;57876;47.792;12.960;2022-08-21T06:00:00;4.73;;;1.33;;
70433;SDS011;57876;47.792;12.960;2022-08-21T06:02:24;4.53;;;1.10;;
70433;SDS011;57876;47.792;12.960;2022-08-21T06:04:48;4.70;;;1.10;;
70433;SDS011;57876;47.792;12.960;2022-08-21T06:07:14;4.17;;;1.20;;
70433;SDS011;57876;47.792;12.960;2022-08-21T06:09:38;4.25;;;1.10;;
70433;SDS011;57876;47.792;12.960;2022-08-21T06:12:04;4.50;;;1.30;;
70433;SDS011;57876;47.792;12.960;2022-08-21T06:14:29;4.10;;;1.10;;
70433;SDS011;57876;47.792;12.960;2022-08-21T06:16:54;4.13;;;1.13;;
70433;SDS011;57876;47.792;12.960;2022-08-21T06:19:18;4.50;;;1.20;;
70433;SDS011;57876;47.792;12.960;2022-08-21T06:21:42;4.50;;;1.00;;
70433;SDS011;57876;47.792;12.960;2022-08-21T06:24:07;4.33;;;1.20;;
70433;SDS011;57876;47.792;12.960;2022-08-21T06:26:31;4.90;;;1.25;;
70433;SDS011;57876;47.792;12.960;2022-08-21T06:28:57;4.50;;;1.10;;
70433;SDS011;57876;47.792;12.960;2022-08-21T06:31:23;4.20;;;1.10;;
70433;SDS011;57876;47.792;12.960;2022-08-21T06:33:49;5.07;;;1.08;;
70433;SDS011;57876;47.792;12.960;2022-08-21T06:36:14;4.07;;;1.10;;
70433;SDS011;57876;47.792;12.960;2022-08-21T06:38:39;4.10;;;1.03;;
70433;SDS011;57876;47.792;12.960;2022-08-21T06:41:04;4.60;;;1.20;;
70433;SDS011;57876;47.792;12.960;2022-08-21T06:43:28;4.47;;;1.20;;
70433;SDS011;57876;47.792;12.960;2022-08-21T06:45:53;4.50;;;1.00;;
70433;SDS011;57876;47.792;12.960;2022-08-21T06:48:18;4.30;;;1.20;;
70433;SDS011;57876;47.792;12.960;2022-08-21T06:50:42;4.20;;;1.00;;
70433;SDS011;57876;47.792;12.960;2022-08-21T06:53:08;4.30;;;1.10;;
70433;SDS011;57876;47.792;12.960;2022-08-21T06:55:34;4.00;;;1.10;;
70433;SDS011;57876;47.792;12.960;2022-08-21T06:58:00;4.00;;;1.10;;
70433;SDS011;57876;47.792;12.960;2022-08-21T07:00:25;4.97;;;1.40;;
70433;SDS011;57876;47.792;12.960;2022-08-21T07:02:49;4.28;;;1.10;;
70433;SDS011;57876;47.792;12.960;2022-08-21T07:05:14;4.60;;;1.27;;
70433;SDS011;57876;47.792;12.960;2022-08-21T07:07:38;4.03;;;1.10;;
70433;SDS011;57876;47.792;12.960;2022-08-21T07:10:02;3.83;;;1.03;;
70433;SDS011;57876;47.792;12.960;2022-08-21T07:12:27;4.05;;;1.10;;
70433;SDS011;57876;47.792;12.960;2022-08-21T07:14:52;3.97;;;1.00;;
70433;SDS011;57876;47.792;12.960;2022-08-21T07:17:16;4.00;;;0.97;;
70433;SDS011;57876;47.792;12.960;2022-08-21T07:19:40;4.63;;;1.00;;
70433;SDS011;57876;47.792;12.960;2022-08-21T07:22:05;4.70;;;1.20;;
70433;SDS011;57876;47.792;12.960;2022-08-21T07:24:29;4.30;;;1.17;;
70433;SDS011;57876;47.792;12.960;2022-08-21T07:26:54;4.60;;;1.10;;
70433;SDS011;57876;47.792;12.960;2022-08-21T07:29:18;4.10;;;1.10;;
70433;SDS011;57876;47.792;12.960;2022-08-21T07:31:42;4.47;;;1.10;;
70433;SDS011;57876;47.792;12.960;2022-08-21T07:34:07;4.43;;;1.23;;
70433;SDS011;57876;47.792;12.960;2022-08-21T07:36:32;3.97;;;0.90;;
70433;SDS011;57876;47.792;12.960;2022-08-21T07:38:56;3.90;;;1.10;;
70433;SDS011;57876;47.792;12.960;2022-08-21T07:41:22;4.87;;;1.30;;
70433;SDS011;57876;47.792;12.960;2022-08-21T07:43:49;4.10;;;1.02;;
70433;SDS011;57876;47.792;12.960;2022-08-21T07:46:13;4.70;;;1.20;;
70433;SDS011;57876;47.792;12.960;2022-08-21T07:48:38;4.57;;;1.27;;
70433;SDS011;57876;47.792;12.960;2022-08-21T07:51:05;3.97;;;0.97;;
70433;SDS011;57876;47.792;12.960;2022-08-21T07:53:31;4.32;;;1.10;;
70433;SDS011;57876;47.792;12.960;2022-08-21T07:55:58;4.47;;;1.03;;
70433;SDS011;57876;47.792;12.960;2022-08-21T07:58:23;4.03;;;1.00;;
70433;SDS011;57876;47.792;12.960;2022-08-21T08:00:47;4.30;;;1.00;;
70433;SDS011;57876;47.792;12.960;2022-08-21T08:03:12;3.85;;;1.08;;
70433;SDS011;57876;47.792;12.960;2022-08-21T08:05:36;3.87;;;0.90;;
70433;SDS011;57876;47.792;12.960;2022-08-21T08:08:01;4.47;;;1.20;;
70433;SDS011;57876;47.792;12.960;2022-08-21T08:10:26;4.13;;;1.00;;
70433;SDS011;57876;47.792;12.960;2022-08-21T08:12:51;4.20;;;1.20;;
70433;SDS011;57876;47.792;12.960;2022-08-21T08:15:16;4.43;;;1.00;;
70433;SDS011;57876;47.792;12.960;2022-08-21T08:17:43;3.92;;;1.10;;
70433;SDS011;57876;47.792;12.960;2022-08-21T08:20:08;4.30;;;1.10;;
70433;SDS011;57876;47.792;12.960;2022-08-21T08:22:34;4.40;;;1.20;;
70433;SDS011;57876;47.792;12.960;2022-08-21T08:25:01;4.95;;;1.10;;
70433;SDS011;57876;47.792;12.960;2022-08-21T08:27:25;4.10;;;1.30;;
70433;SDS011;57876;47.792;12.960;2022-08-21T08:29:50;4.67;;;1.07;;
70433;SDS011;57876;47.792;12.960;2022-08-21T08:32:15;4.38;;;1.10;;
70433;SDS011;57876;47.792;12.960;2022-08-21T08:34:39;4.40;;;1.17;;
70433;SDS011;57876;47.792;12.960;2022-08-21T08:37:04;3.97;;;1.00;;
70433;SDS011;57876;47.792;12.960;2022-08-21T08:39:30;4.45;;;1.17;;
70433;SDS011;57876;47.792;12.960;2022-08-21T08:42:14;4.30;;;1.17;;
70433;SDS011;57876;47.792;12.960;2022-08-21T08:44:43;3.90;;;1.17;;
70433;SDS011;57876;47.792;12.960;2022-08-21T08:47:09;3.80;;;1.00;;
70433;SDS011;57876;47.792;12.960;2022-08-21T08:49:37;4.20;;;1.00;;
70433;SDS011;57876;47.792;12.960;2022-08-21T08:52:49;3.90;;;1.00;;
70433;SDS011;57876;47.792;12.960;2022-08-21T08:57:24;4.05;;;1.05;;
70433;SDS011;57876;47.792;12.960;2022-08-21T08:59:50;4.35;;;1.30;;
70433;SDS011;57876;47.792;12.960;2022-08-21T09:02:17;4.30;;;1.20;;
70433;SDS011;57876;47.792;12.960;2022-08-21T09:04:42;4.10;;;1.00;;
70433;SDS011;57876;47.792;12.960;2022-08-21T09:07:14;3.92;;;0.90;;
70433;SDS011;57876;47.792;12.960;2022-08-21T09:12:18;4.32;;;1.15;;
70433;SDS011;57876;47.792;12.960;2022-08-21T09:20:17;4.55;;;1.30;;
70433;SDS011;57876;47.792;12.960;2022-08-21T09:26:07;4.03;;;1.07;;
70433;SDS011;57876;47.792;12.960;2022-08-21T09:28:37;4.10;;;1.10;;
70433;SDS011;57876;47.792;12.960;2022-08-21T09:31:08;3.90;;;1.00;;
70433;SDS011;57876;47.792;12.960;2022-08-21T09:33:43;3.90;;;1.00;;
70433;SDS011;57876;47.792;12.960;2022-08-21T09:36:07;4.33;;;1.10;;
70433;SDS011;57876;47.792;12.960;2022-08-21T09:38:33;3.92;;;0.93;;
70433;SDS011;57876;47.792;12.960;2022-08-21T09:41:02;4.43;;;1.10;;
70433;SDS011;57876;47.792;12.960;2022-08-21T09:43:28;4.28;;;1.08;;
70433;SDS011;57876;47.792;12.960;2022-08-21T09:46:04;4.10;;;1.13;;
70433;SDS011;57876;47.792;12.960;2022-08-21T09:48:39;4.00;;;0.90;;
70433;SDS011;57876;47.792;12.960;2022-08-21T09:51:06;4.50;;;1.10;;
70433;SDS011;57876;47.792;12.960;2022-08-21T09:53:43;4.20;;;1.00;;
70433;SDS011;57876;47.792;12.960;2022-08-21T09:56:18;4.30;;;1.10;;
70433;SDS011;57876;47.792;12.960;2022-08-21T09:59:12;4.07;;;1.00;;
70433;SDS011;57876;47.792;12.960;2022-08-21T10:01:43;4.15;;;1.10;;
70433;SDS011;57876;47.792;12.960;2022-08-21T10:04:13;4.65;;;1.23;;
70433;SDS011;57876;47.792;12.960;2022-08-21T10:06:38;4.47;;;1.10;;
70433;SDS011;57876;47.792;12.960;2022-08-21T10:09:12;4.30;;;1.05;;
70433;SDS011;57876;47.792;12.960;2022-08-21T10:11:40;4.30;;;1.00;;
70433;SDS011;57876;47.792;12.960;2022-08-21T10:16:40;4.20;;;1.20;;
70433;SDS011;57876;47.792;12.960;2022-08-21T10:27:58;4.00;;;0.98;;
70433;SDS011;57876;47.792;12.960;2022-08-21T10:33:03;4.53;;;1.30;;
70433;SDS011;57876;47.792;12.960;2022-08-21T10:36:05;3.95;;;1.08;;
70433;SDS011;57876;47.792;12.960;2022-08-21T10:44:30;4.60;;;1.40;;
70433;SDS011;57876;47.792;12.960;2022-08-21T10:49:46;4.00;;;1.00;;
70433;SDS011;57876;47.792;12.960;2022-08-21T11:00:39;4.10;;;1.17;;
70433;SDS011;57876;47.792;12.960;2022-08-21T11:03:10;4.30;;;1.10;;
70433;SDS011;57876;47.792;12.960;2022-08-21T11:08:09;4.25;;;0.90;;
70433;SDS011;57876;47.792;12.960;2022-08-21T11:13:11;4.33;;;1.00;;
70433;SDS011;57876;47.792;12.960;2022-08-21T11:23:59;4.13;;;1.08;;
70433;SDS011;57876;47.792;12.960;2022-08-21T11:27:06;3.83;;;0.97;;
70433;SDS011;57876;47.792;12.960;2022-08-21T11:29:36;4.43;;;1.23;;
70433;SDS011;57876;47.792;12.960;2022-08-21T11:32:11;4.15;;;1.17;;
70433;SDS011;57876;47.792;12.960;2022-08-21T11:38:01;4.68;;;1.23;;
70433;SDS011;57876;47.792;12.960;2022-08-21T11:43:37;4.15;;;1.10;;
70433;SDS011;57876;47.792;12.960;2022-08-21T11:51:22;4.25;;;1.17;;
70433;SDS011;57876;47.792;12.960;2022-08-21T11:54:05;4.47;;;1.27;;
70433;SDS011;57876;47.792;12.960;2022-08-21T11:56:33;4.03;;;1.13;;
70433;SDS011;57876;47.792;12.960;2022-08-21T12:02:20;4.22;;;1.20;;
70433;SDS011;57876;47.792;12.960;2022-08-21T12:04:52;4.20;;;1.13;;
70433;SDS011;57876;47.792;12.960;2022-08-21T12:07:31;4.03;;;1.17;;
70433;SDS011;57876;47.792;12.960;2022-08-21T12:09:59;4.30;;;1.20;;
70433;SDS011;57876;47.792;12.960;2022-08-21T12:15:04;5.10;;;1.40;;
70433;SDS011;57876;47.792;12.960;2022-08-21T12:17:38;4.40;;;1.10;;
70433;SDS011;57876;47.792;12.960;2022-08-21T12:20:25;4.57;;;1.30;;
70433;SDS011;57876;47.792;12.960;2022-08-21T12:22:55;4.72;;;1.20;;
70433;SDS011;57876;47.792;12.960;2022-08-21T12:25:47;4.63;;;1.20;;
70433;SDS011;57876;47.792;12.960;2022-08-21T12:28:23;4.30;;;1.20;;
70433;SDS011;57876;47.792;12.960;2022-08-21T12:30:49;4.10;;;1.08;;
70433;SDS011;57876;47.792;12.960;2022-08-21T12:33:34;4.37;;;1.00;;
70433;SDS011;57876;47.792;12.960;2022-08-21T12:36:06;4.07;;;1.25;;
70433;SDS011;57876;47.792;12.960;2022-08-21T12:41:22;4.43;;;1.30;;
70433;SDS011;57876;47.792;12.960;2022-08-21T12:43:53;4.20;;;1.33;;
70433;SDS011;57876;47.792;12.960;2022-08-21T12:46:35;4.33;;;1.20;;
70433;SDS011;57876;47.792;12.960;2022-08-21T12:49:47;4.95;;;1.30;;
70433;SDS011;57876;47.792;12.960;2022-08-21T12:51:57;4.28;;;1.40;;
70433;SDS011;57876;47.792;12.960;2022-08-21T12:54:44;4.43;;;1.45;;
70433;SDS011;57876;47.792;12.960;2022-08-21T12:57:09;4.50;;;1.30;;
70433;SDS011;57876;47.792;12.960;2022-08-21T12:59:42;4.30;;;1.40;;
70433;SDS011;57876;47.792;12.960;2022-08-21T13:02:13;4.30;;;1.20;;
70433;SDS011;57876;47.792;12.960;2022-08-21T13:04:42;5.22;;;1.30;;
70433;SDS011;57876;47.792;12.960;2022-08-21T13:07:08;4.33;;;1.43;;
70433;SDS011;57876;47.792;12.960;2022-08-21T13:09:44;4.43;;;1.40;;
70433;SDS011;57876;47.792;12.960;2022-08-21T13:12:11;4.05;;;1.05;;
70433;SDS011;57876;47.792;12.960;2022-08-21T13:14:38;4.50;;;1.33;;
70433;SDS011;57876;47.792;12.960;2022-08-21T13:17:05;4.32;;;1.13;;
70433;SDS011;57876;47.792;12.960;2022-08-21T13:19:31;4.40;;;1.43;;
70433;SDS011;57876;47.792;12.960;2022-08-21T13:21:56;4.63;;;1.30;;
70433;SDS011;57876;47.792;12.960;2022-08-21T13:24:39;4.70;;;1.50;;
70433;SDS011;57876;47.792;12.960;2022-08-21T13:27:14;4.50;;;1.30;;
70433;SDS011;57876;47.792;12.960;2022-08-21T13:29:41;4.45;;;1.40;;
70433;SDS011;57876;47.792;12.960;2022-08-21T13:32:05;4.40;;;1.20;;
70433;SDS011;57876;47.792;12.960;2022-08-21T13:34:34;4.60;;;1.40;;
70433;SDS011;57876;47.792;12.960;2022-08-21T13:37:04;4.55;;;1.50;;
70433;SDS011;57876;47.792;12.960;2022-08-21T13:39:31;4.40;;;1.35;;
70433;SDS011;57876;47.792;12.960;2022-08-21T13:41:57;5.33;;;1.37;;
70433;SDS011;57876;47.792;12.960;2022-08-21T13:44:42;4.47;;;1.35;;
70433;SDS011;57876;47.792;12.960;2022-08-21T13:47:11;4.50;;;1.42;;
70433;SDS011;57876;47.792;12.960;2022-08-21T13:49:42;4.70;;;1.50;;
70433;SDS011;57876;47.792;12.960;2022-08-21T13:52:17;4.60;;;1.30;;
70433;SDS011;57876;47.792;12.960;2022-08-21T13:54:52;4.60;;;1.40;;
70433;SDS011;57876;47.792;12.960;2022-08-21T13:57:25;4.85;;;1.40;;
70433;SDS011;57876;47.792;12.960;2022-08-21T14:02:54;4.35;;;1.42;;
70433;SDS011;57876;47.792;12.960;2022-08-21T14:05:27;4.30;;;1.20;;
70433;SDS011;57876;47.792;12.960;2022-08-21T14:08:10;4.10;;;1.30;;
70433;SDS011;57876;47.792;12.960;2022-08-21T14:10:42;4.68;;;1.80;;
70433;SDS011;57876;47.792;12.960;2022-08-21T14:13:19;4.40;;;1.30;;
70433;SDS011;57876;47.792;12.960;2022-08-21T14:15:53;4.65;;;1.30;;
70433;SDS011;57876;47.792;12.960;2022-08-21T14:18:23;4.38;;;1.20;;
70433;SDS011;57876;47.792;12.960;2022-08-21T14:20:49;5.00;;;1.40;;
70433;SDS011;57876;47.792;12.960;2022-08-21T14:23:24;4.60;;;1.40;;
70433;SDS011;57876;47.792;12.960;2022-08-21T14:25:49;4.70;;;1.45;;
70433;SDS011;57876;47.792;12.960;2022-08-21T14:30:49;4.75;;;1.42;;
70433;SDS011;57876;47.792;12.960;2022-08-21T14:33:18;4.50;;;1.30;;
70433;SDS011;57876;47.792;12.960;2022-08-21T14:35:48;4.70;;;1.38;;
70433;SDS011;57876;47.792;12.960;2022-08-21T14:38:16;4.67;;;1.50;;
70433;SDS011;57876;47.792;12.960;2022-08-21T14:40:42;4.90;;;1.30;;
70433;SDS011;57876;47.792;12.960;2022-08-21T14:43:10;4.70;;;1.48;;
70433;SDS011;57876;47.792;12.960;2022-08-21T14:45:34;4.37;;;1.30;;
70433;SDS011;57876;47.792;12.960;2022-08-21T14:48:00;4.90;;;1.60;;
70433;SDS011;57876;47.792;12.960;2022-08-21T14:50:25;4.80;;;1.50;;
70433;SDS011;57876;47.792;12.960;2022-08-21T14:52:50;4.40;;;1.58;;
70433;SDS011;57876;47.792;12.960;2022-08-21T14:55:14;4.87;;;1.50;;
70433;SDS011;57876;47.792;12.960;2022-08-21T14:57:44;4.85;;;1.50;;
70433;SDS011;57876;47.792;12.960;2022-08-21T15:00:12;4.50;;;1.33;;
70433;SDS011;57876;47.792;12.960;2022-08-21T15:02:38;5.60;;;1.40;;
70433;SDS011;57876;47.792;12.960;2022-08-21T15:05:02;4.83;;;1.50;;
70433;SDS011;57876;47.792;12.960;2022-08-21T15:07:27;4.80;;;1.40;;
70433;SDS011;57876;47.792;12.960;2022-08-21T15:09:52;5.87;;;1.50;;
70433;SDS011;57876;47.792;12.960;2022-08-21T15:12:16;5.10;;;1.40;;
70433;SDS011;57876;47.792;12.960;2022-08-21T15:14:40;4.70;;;1.40;;
70433;SDS011;57876;47.792;12.960;2022-08-21T15:17:06;4.93;;;1.60;;
70433;SDS011;57876;47.792;12.960;2022-08-21T15:19:32;4.60;;;1.45;;
70433;SDS011;57876;47.792;12.960;2022-08-21T15:21:57;4.73;;;1.40;;
70433;SDS011;57876;47.792;12.960;2022-08-21T15:24:22;578.38;;;91.78;;
70433;SDS011;57876;47.792;12.960;2022-08-21T15:26:46;523.07;;;92.67;;
70433;SDS011;57876;47.792;12.960;2022-08-21T15:29:11;487.23;;;84.85;;
70433;SDS011;57876;47.792;12.960;2022-08-21T15:31:35;485.43;;;95.17;;
70433;SDS011;57876;47.792;12.960;2022-08-21T15:34:00;511.80;;;104.93;;
70433;SDS011;57876;47.792;12.960;2022-08-21T15:36:25;424.67;;;77.30;;
70433;SDS011;57876;47.792;12.960;2022-08-21T15:38:49;430.60;;;70.57;;
70433;SDS011;57876;47.792;12.960;2022-08-21T15:41:14;405.80;;;71.88;;
70433;SDS011;57876;47.792;12.960;2022-08-21T15:43:45;396.23;;;70.47;;
70433;SDS011;57876;47.792;12.960;2022-08-21T15:46:12;375.02;;;61.70;;
70433;SDS011;57876;47.792;12.960;2022-08-21T15:48:38;357.92;;;67.10;;
70433;SDS011;57876;47.792;12.960;2022-08-21T15:51:02;354.60;;;57.77;;
70433;SDS011;57876;47.792;12.960;2022-08-21T15:53:27;413.60;;;72.20;;
70433;SDS011;57876;47.792;12.960;2022-08-21T15:55:51;425.80;;;78.67;;
70433;SDS011;57876;47.792;12.960;2022-08-21T15:58:17;329.30;;;62.72;;
70433;SDS011;57876;47.792;12.960;2022-08-21T16:00:44;349.65;;;59.60;;